createdAt,value
2019-06-07T00:01:56.189Z,13.02
2019-06-07T00:04:26.657Z,12.99
2019-06-07T00:06:57.023Z,12.96
2019-06-07T00:09:27.507Z,12.93
2019-06-07T00:11:58.061Z,13.00
2019-06-07T00:14:28.589Z,12.92
2019-06-07T00:16:59.112Z,12.86
2019-06-07T00:19:29.606Z,12.81
2019-06-07T00:22:17.689Z,12.76
2019-06-07T00:24:32.145Z,12.70
2019-06-07T00:27:02.625Z,12.69
2019-06-07T00:29:33.024Z,12.66
2019-06-07T00:32:03.212Z,12.63
2019-06-07T00:34:33.564Z,12.61
2019-06-07T00:37:03.994Z,12.59
2019-06-07T00:39:34.466Z,12.54
2019-06-07T00:42:05.117Z,12.52
2019-06-07T00:44:35.727Z,12.50
2019-06-07T00:47:06.833Z,12.49
2019-06-07T00:49:41.474Z,12.46
2019-06-07T00:52:09.251Z,12.44
2019-06-07T00:54:39.669Z,12.41
2019-06-07T00:57:10.087Z,12.39
2019-06-07T00:59:40.417Z,12.37
2019-06-07T01:02:14.068Z,12.36
2019-06-07T01:04:42.902Z,12.32
2019-06-07T01:07:13.373Z,12.29
2019-06-07T01:09:43.836Z,12.27
2019-06-07T01:12:18.112Z,12.26
2019-06-07T01:14:46.444Z,12.26
2019-06-07T01:17:41.189Z,12.26
2019-06-07T01:19:59.288Z,12.25
2019-06-07T01:22:29.711Z,12.26
2019-06-07T01:25:00.048Z,12.24
2019-06-07T01:27:30.533Z,12.23
2019-06-07T01:30:00.882Z,12.22
2019-06-07T01:32:31.722Z,12.18
2019-06-07T01:35:02.419Z,12.17
2019-06-07T01:37:32.927Z,12.16
2019-06-07T01:40:03.476Z,12.18
2019-06-07T01:42:33.909Z,12.19
2019-06-07T01:45:04.727Z,12.20
2019-06-07T01:47:35.099Z,12.24
2019-06-07T01:50:05.790Z,12.28
2019-06-07T01:52:36.247Z,12.32
2019-06-07T01:55:07.766Z,12.31
2019-06-07T01:57:47.975Z,12.33
2019-06-07T02:00:11.728Z,12.34
2019-06-07T02:02:42.128Z,12.35
2019-06-07T02:05:13.495Z,12.36
2019-06-07T02:07:43.936Z,12.38
2019-06-07T02:10:14.778Z,12.37
2019-06-07T02:12:45.318Z,12.35
2019-06-07T02:15:16.249Z,12.32
2019-06-07T02:17:46.774Z,12.29
2019-06-07T02:20:17.860Z,12.27
2019-06-07T02:22:48.210Z,12.25
2019-06-07T02:27:50.860Z,12.23
2019-06-07T02:30:40.195Z,12.21
2019-06-07T02:32:53.992Z,12.21
2019-06-07T02:35:30.915Z,12.19
2019-06-07T02:37:56.560Z,12.18
2019-06-07T02:40:32.040Z,12.16
2019-06-07T02:42:59.072Z,12.16
2019-06-07T02:45:36.079Z,12.15
2019-06-07T02:48:01.680Z,12.13
2019-06-07T02:50:37.970Z,12.09
2019-06-07T02:53:04.248Z,12.06
2019-06-07T02:56:26.474Z,12.04
2019-06-07T02:58:07.255Z,12.05
2019-06-07T03:01:05.592Z,12.05
2019-06-07T03:03:18.543Z,12.23
2019-06-07T03:05:50.467Z,12.19
2019-06-07T03:08:20.925Z,12.14
2019-06-07T03:10:52.562Z,12.16
2019-06-07T03:13:23.448Z,12.14
2019-06-07T03:15:56.219Z,12.13
2019-06-07T03:18:43.924Z,12.12
2019-06-07T03:21:18.265Z,12.13
2019-06-07T03:23:49.106Z,12.10
2019-06-07T03:26:19.450Z,12.10
2019-06-07T03:28:49.940Z,12.11
2019-06-07T03:31:20.245Z,12.13
2019-06-07T03:33:50.687Z,12.15
2019-06-07T03:36:25.676Z,12.16
2019-06-07T03:38:53.266Z,12.16
2019-06-07T03:41:23.762Z,12.18
2019-06-07T03:43:54.127Z,12.21
2019-06-07T03:46:24.557Z,12.23
2019-06-07T03:49:07.450Z,12.25
2019-06-07T03:51:48.516Z,12.27
2019-06-07T03:54:18.880Z,12.30
2019-06-07T03:56:49.539Z,12.34
2019-06-07T03:59:19.841Z,12.38
2019-06-07T04:01:50.064Z,12.42
2019-06-07T04:04:20.310Z,12.45
2019-06-07T04:06:50.533Z,12.50
2019-06-07T04:09:21.003Z,12.58
2019-06-07T04:11:51.537Z,12.62
2019-06-07T04:14:23.414Z,12.69
2019-06-07T04:16:53.943Z,12.77
2019-06-07T04:19:24.966Z,12.82
2019-06-07T04:21:55.584Z,12.90
2019-06-07T04:24:25.885Z,12.97
2019-06-07T04:26:56.079Z,13.04
2019-06-07T04:29:47.839Z,13.14
2019-06-07T04:31:58.308Z,13.23
2019-06-07T04:34:29.269Z,13.32
2019-06-07T04:37:01.409Z,13.42
2019-06-07T04:39:35.448Z,13.51
2019-06-07T04:42:04.537Z,13.63
2019-06-07T04:44:41.056Z,13.72
2019-06-07T04:47:11.181Z,13.83
2019-06-07T04:49:44.259Z,13.97
2019-06-07T04:52:15.487Z,14.10
2019-06-07T04:54:46.113Z,14.23
2019-06-07T04:57:16.286Z,14.32
2019-06-07T05:00:22.269Z,14.43
2019-06-07T05:02:18.331Z,14.52
2019-06-07T05:04:48.567Z,14.57
2019-06-07T05:07:19.028Z,14.65
2019-06-07T05:09:49.218Z,14.70
2019-06-07T05:12:19.418Z,14.76
2019-06-07T05:14:49.587Z,14.79
2019-06-07T05:17:19.910Z,14.90
2019-06-07T05:19:50.105Z,15.03
2019-06-07T05:22:20.434Z,15.15
2019-06-07T05:24:50.706Z,15.28
2019-06-07T05:27:20.981Z,15.39
2019-06-07T05:30:08.903Z,15.51
2019-06-07T05:32:23.418Z,15.62
2019-06-07T05:34:53.722Z,15.70
2019-06-07T05:37:23.951Z,15.79
2019-06-07T05:39:54.242Z,15.90
2019-06-07T05:42:24.627Z,15.99
2019-06-07T05:44:54.851Z,16.07
2019-06-07T05:47:25.515Z,16.14
2019-06-07T05:49:55.961Z,16.16
2019-06-07T05:52:26.432Z,16.32
2019-06-07T05:54:56.612Z,16.43
2019-06-07T05:57:27.162Z,16.57
2019-06-07T05:59:57.321Z,16.86
2019-06-07T06:02:27.667Z,16.95
2019-06-07T06:04:58.006Z,17.05
2019-06-07T06:07:28.413Z,17.12
2019-06-07T06:09:58.805Z,17.23
2019-06-07T06:12:35.272Z,17.37
2019-06-07T06:15:01.040Z,17.50
2019-06-07T06:17:31.502Z,17.63
2019-06-07T06:20:01.846Z,17.75
2019-06-07T06:22:32.121Z,17.87
2019-06-07T06:25:30.766Z,18.01
2019-06-07T06:28:08.120Z,18.32
2019-06-07T06:30:09.386Z,18.49
2019-06-07T06:32:43.041Z,18.64
2019-06-07T06:35:12.101Z,18.75
2019-06-07T06:37:48.977Z,18.88
2019-06-07T06:40:14.931Z,19.00
2019-06-07T06:42:49.005Z,19.11
2019-06-07T06:45:19.511Z,19.23
2019-06-07T06:47:50.636Z,19.40
2019-06-07T06:50:21.427Z,19.55
2019-06-07T06:52:54.647Z,19.66
2019-06-07T06:55:23.891Z,19.77
2019-06-07T06:57:54.317Z,19.86
2019-06-07T07:00:53.739Z,19.96
2019-06-07T07:03:54.210Z,20.12
2019-06-07T07:05:54.580Z,20.31
2019-06-07T07:08:24.373Z,20.47
2019-06-07T07:10:55.119Z,20.48
2019-06-07T07:13:25.810Z,20.63
2019-06-07T07:15:58.417Z,20.88
2019-06-07T07:18:28.396Z,21.07
2019-06-07T07:20:58.803Z,21.24
2019-06-07T07:23:29.174Z,21.46
2019-06-07T07:26:00.266Z,21.66
2019-06-07T07:28:30.767Z,21.85
2019-06-07T07:31:01.208Z,21.91
2019-06-07T07:34:20.851Z,21.77
2019-06-07T07:36:19.109Z,21.57
2019-06-07T07:38:35.869Z,21.51
2019-06-07T07:41:14.602Z,21.63
2019-06-07T07:43:39.174Z,21.81
2019-06-07T07:46:28.419Z,21.95
2019-06-07T07:48:43.579Z,22.06
2019-06-07T07:51:14.859Z,22.18
2019-06-07T07:53:56.047Z,22.34
2019-06-07T07:56:17.303Z,22.54
2019-06-07T07:58:52.297Z,22.75
2019-06-07T08:01:19.901Z,22.94
2019-06-07T08:03:50.727Z,23.03
2019-06-07T08:06:22.544Z,23.13
2019-06-07T08:08:55.831Z,23.13
2019-06-07T08:11:25.205Z,23.18
2019-06-07T08:13:58.500Z,23.24
2019-06-07T08:16:27.877Z,23.29
2019-06-07T08:19:03.483Z,23.35
2019-06-07T08:21:30.682Z,23.45
2019-06-07T08:24:04.623Z,23.55
2019-06-07T08:26:33.122Z,23.58
2019-06-07T08:29:06.044Z,23.67
2019-06-07T08:31:36.408Z,23.76
2019-06-07T08:34:06.907Z,23.77
2019-06-07T08:36:42.522Z,23.87
2019-06-07T08:39:10.216Z,23.84
2019-06-07T08:41:53.805Z,23.79
2019-06-07T08:44:23.436Z,23.84
2019-06-07T08:46:44.956Z,23.97
2019-06-07T08:49:15.423Z,24.13
2019-06-07T08:51:45.797Z,24.29
2019-06-07T08:54:22.712Z,24.51
2019-06-07T08:56:48.344Z,24.69
2019-06-07T08:59:18.791Z,24.86
2019-06-07T09:01:49.135Z,25.05
2019-06-07T09:04:19.597Z,25.15
2019-06-07T09:09:22.087Z,25.34
2019-06-07T09:11:54.162Z,25.35
2019-06-07T09:14:24.562Z,25.31
2019-06-07T09:17:00.436Z,25.12
2019-06-07T09:19:26.995Z,25.01
2019-06-07T09:22:01.540Z,25.05
2019-06-07T09:24:29.448Z,25.21
2019-06-07T09:27:02.431Z,25.37
2019-06-07T09:29:32.604Z,25.57
2019-06-07T09:32:05.891Z,25.94
2019-06-07T09:34:35.172Z,26.27
2019-06-07T09:37:54.375Z,26.44
2019-06-07T09:39:37.781Z,26.44
2019-06-07T09:42:11.886Z,26.50
2019-06-07T09:44:40.372Z,26.49
2019-06-07T09:47:30.176Z,26.50
2019-06-07T09:49:42.897Z,26.73
2019-06-07T09:52:13.185Z,27.06
2019-06-07T09:55:05.776Z,27.37
2019-06-07T09:57:17.484Z,27.59
2019-06-07T09:59:47.698Z,27.68
2019-06-07T10:02:18.070Z,27.75
2019-06-07T10:04:48.356Z,27.48
2019-06-07T10:07:31.267Z,27.21
2019-06-07T10:10:19.824Z,27.27
2019-06-07T10:12:22.936Z,27.23
2019-06-07T10:14:53.318Z,27.06
2019-06-07T10:17:23.678Z,27.23
2019-06-07T10:19:53.984Z,27.47
2019-06-07T10:22:24.383Z,27.57
2019-06-07T10:24:54.759Z,27.67
2019-06-07T10:27:25.027Z,27.83
2019-06-07T10:29:55.338Z,27.82
2019-06-07T10:32:25.779Z,27.75
2019-06-07T10:34:56.126Z,27.78
2019-06-07T10:37:26.615Z,27.61
2019-06-07T10:39:57.055Z,27.49
2019-06-07T10:42:27.383Z,27.58
2019-06-07T10:44:57.733Z,27.60
2019-06-07T10:47:28.012Z,27.58
2019-06-07T10:49:58.414Z,27.55
2019-06-07T10:52:28.733Z,27.48
2019-06-07T10:54:59.203Z,27.31
2019-06-07T10:57:29.550Z,27.34
2019-06-07T10:59:59.945Z,27.53
2019-06-07T11:02:30.381Z,27.52
2019-06-07T11:05:00.884Z,27.70
2019-06-07T11:07:31.315Z,28.07
2019-06-07T11:10:07.073Z,28.33
2019-06-07T11:12:33.732Z,28.35
2019-06-07T11:15:04.595Z,28.40
2019-06-07T11:17:34.911Z,28.27
2019-06-07T11:20:06.118Z,28.30
2019-06-07T11:22:36.446Z,28.48
2019-06-07T11:25:09.101Z,28.60
2019-06-07T11:27:39.246Z,28.59
2019-06-07T11:30:10.511Z,28.70
2019-06-07T11:32:41.039Z,28.84
2019-06-07T11:35:13.547Z,28.84
2019-06-07T11:37:44.029Z,28.73
2019-06-07T11:40:32.019Z,28.79
2019-06-07T11:42:46.769Z,29.03
2019-06-07T11:45:18.121Z,29.40
2019-06-07T11:47:48.519Z,29.71
2019-06-07T11:50:19.224Z,29.84
2019-06-07T11:52:49.673Z,30.27
2019-06-07T11:55:20.181Z,30.76
2019-06-07T11:57:50.585Z,31.19
2019-06-07T12:00:21.367Z,31.58
2019-06-07T12:02:51.673Z,31.61
2019-06-07T12:05:21.922Z,31.62
2019-06-07T12:07:52.232Z,31.64
2019-06-07T12:10:23.290Z,31.70
2019-06-07T12:12:53.735Z,31.90
2019-06-07T12:15:24.007Z,31.83
2019-06-07T12:17:54.383Z,31.32
2019-06-07T12:20:24.854Z,30.78
2019-06-07T12:22:55.177Z,30.77
2019-06-07T12:25:25.496Z,30.91
2019-06-07T12:27:55.822Z,30.92
2019-06-07T12:30:28.034Z,31.21
2019-06-07T12:32:58.259Z,31.77
2019-06-07T12:35:28.564Z,32.44
2019-06-07T12:37:58.983Z,33.14
2019-06-07T12:40:32.254Z,33.83
2019-06-07T12:43:01.359Z,34.48
2019-06-07T12:45:44.580Z,34.88
2019-06-07T12:48:03.830Z,34.78
2019-06-07T12:50:42.419Z,33.93
2019-06-07T12:53:07.154Z,33.49
2019-06-07T12:55:37.549Z,33.09
2019-06-07T12:58:07.789Z,32.87
2019-06-07T13:00:38.171Z,33.08
2019-06-07T13:03:08.575Z,33.41
2019-06-07T13:05:38.907Z,33.69
2019-06-07T13:08:09.277Z,33.90
2019-06-07T13:10:39.628Z,34.20
2019-06-07T13:13:10.069Z,34.86
2019-06-07T13:15:40.456Z,35.37
2019-06-07T13:18:14.695Z,35.68
2019-06-07T13:20:42.853Z,36.15
2019-06-07T13:23:13.338Z,36.67
2019-06-07T13:25:46.611Z,36.78
2019-06-07T13:28:17.210Z,36.56
2019-06-07T13:30:47.847Z,37.58
2019-06-07T13:33:21.510Z,37.79
2019-06-07T13:35:52.032Z,37.77
2019-06-07T13:38:26.296Z,37.66
2019-06-07T13:40:57.509Z,37.78
2019-06-07T13:43:28.266Z,37.27
2019-06-07T13:45:58.747Z,36.56
2019-06-07T13:48:29.155Z,36.29
2019-06-07T13:50:59.533Z,35.62
2019-06-07T13:53:29.909Z,35.02
2019-06-07T13:56:00.247Z,35.20
2019-06-07T13:58:30.599Z,36.04
2019-06-07T14:01:00.971Z,36.87
2019-06-07T14:03:33.995Z,37.24
2019-06-07T14:06:03.814Z,38.01
2019-06-07T14:08:34.193Z,38.95
2019-06-07T14:11:04.652Z,39.52
2019-06-07T14:13:35.023Z,39.66
2019-06-07T14:16:05.919Z,39.59
2019-06-07T14:18:36.308Z,39.13
2019-06-07T14:21:07.058Z,38.66
2019-06-07T14:23:48.230Z,38.43
2019-06-07T14:26:09.544Z,38.72
2019-06-07T14:28:39.911Z,39.16
2019-06-07T14:31:10.287Z,39.54
2019-06-07T14:33:40.696Z,40.35
2019-06-07T14:36:11.095Z,41.11
2019-06-07T14:38:41.552Z,40.80
2019-06-07T14:41:11.909Z,39.87
2019-06-07T14:43:45.497Z,39.27
2019-06-07T14:46:15.912Z,39.02
2019-06-07T14:48:46.455Z,38.26
2019-06-07T14:51:17.005Z,37.51
2019-06-07T14:53:47.414Z,36.87
2019-06-07T14:56:17.843Z,36.20
2019-06-07T14:58:48.234Z,35.58
2019-06-07T15:01:18.551Z,35.00
2019-06-07T15:03:48.919Z,34.45
2019-06-07T15:06:19.422Z,34.45
2019-06-07T15:08:51.840Z,34.89
2019-06-07T15:11:22.237Z,34.94
2019-06-07T15:13:52.593Z,34.85
2019-06-07T15:16:22.952Z,34.46
2019-06-07T15:18:53.574Z,34.14
2019-06-07T15:21:23.969Z,33.81
2019-06-07T15:23:55.616Z,34.98
2019-06-07T15:26:26.038Z,35.23
2019-06-07T15:28:56.578Z,34.45
2019-06-07T15:31:27.875Z,33.90
2019-06-07T15:33:58.780Z,33.24
2019-06-07T15:36:30.233Z,33.00
2019-06-07T15:39:01.347Z,32.72
2019-06-07T15:41:33.106Z,32.26
2019-06-07T15:44:03.563Z,31.77
2019-06-07T15:46:33.936Z,31.30
2019-06-07T15:49:04.587Z,30.85
2019-06-07T15:51:36.479Z,30.41
2019-06-07T15:54:07.488Z,30.02
2019-06-07T15:56:39.116Z,29.73
2019-06-07T15:59:09.612Z,29.55
2019-06-07T16:01:40.023Z,29.35
2019-06-07T16:04:10.508Z,29.16
2019-06-07T16:06:43.464Z,28.99
2019-06-07T16:09:13.286Z,28.81
2019-06-07T16:11:44.286Z,28.54
2019-06-07T16:14:14.824Z,28.23
2019-06-07T16:16:45.246Z,27.92
2019-06-07T16:19:15.639Z,27.70
2019-06-07T16:21:46.027Z,27.46
2019-06-07T16:24:16.414Z,27.36
2019-06-07T16:26:46.800Z,27.23
2019-06-07T16:29:17.277Z,27.16
2019-06-07T16:31:47.678Z,27.16
2019-06-07T16:34:18.097Z,27.26
2019-06-07T16:36:48.870Z,27.60
2019-06-07T16:39:19.237Z,28.33
2019-06-07T16:41:51.042Z,29.20
2019-06-07T16:44:21.497Z,29.56
2019-06-07T16:46:51.940Z,29.34
2019-06-07T16:49:22.398Z,29.03
2019-06-07T16:51:52.696Z,28.70
2019-06-07T16:54:23.210Z,28.48
2019-06-07T16:56:53.689Z,28.31
2019-06-07T17:01:58.204Z,28.01
2019-06-07T17:04:29.006Z,27.79
2019-06-07T17:06:59.683Z,27.58
2019-06-07T17:09:30.564Z,27.40
2019-06-07T17:12:07.503Z,27.20
2019-06-07T17:14:38.406Z,27.07
2019-06-07T17:17:09.243Z,26.91
2019-06-07T17:19:40.848Z,26.80
2019-06-07T17:22:11.655Z,26.68
2019-06-07T17:24:43.311Z,26.58
2019-06-07T17:27:14.407Z,26.43
2019-06-07T17:29:45.822Z,26.32
2019-06-07T17:32:16.271Z,26.26
2019-06-07T17:34:48.080Z,26.20
2019-06-07T17:37:18.646Z,26.17
2019-06-07T17:39:49.096Z,26.14
2019-06-07T17:42:19.705Z,26.04
2019-06-07T17:44:51.342Z,25.84
2019-06-07T17:47:21.874Z,25.61
2019-06-07T17:49:52.400Z,25.24
2019-06-07T17:52:22.865Z,24.92
2019-06-07T17:55:02.521Z,24.68
2019-06-07T17:57:38.841Z,24.19
2019-06-07T18:02:44.732Z,21.74
2019-06-07T18:05:15.406Z,20.49
2019-06-07T18:07:47.781Z,19.65
2019-06-07T18:10:35.022Z,19.22
2019-06-07T18:13:05.799Z,19.02
2019-06-07T18:15:42.433Z,18.96
2019-06-07T18:18:12.974Z,19.03
2019-06-07T18:20:45.028Z,19.13
2019-06-07T18:23:16.097Z,19.30
2019-06-07T18:25:46.544Z,19.22
2019-06-07T18:28:16.928Z,19.05
2019-06-07T18:30:48.552Z,18.87
2019-06-07T18:33:19.132Z,18.73
2019-06-07T18:35:49.588Z,18.62
2019-06-07T18:38:20.215Z,18.53
2019-06-07T18:40:51.238Z,18.45
2019-06-07T18:43:21.800Z,18.35
2019-06-07T18:45:53.536Z,18.29
2019-06-07T18:48:24.003Z,18.26
2019-06-07T18:50:54.700Z,18.24
2019-06-07T18:53:25.202Z,18.21
2019-06-07T18:55:56.242Z,18.17
2019-06-07T18:58:26.700Z,18.12
2019-06-07T19:00:57.562Z,18.07
2019-06-07T19:03:28.049Z,18.01
2019-06-07T19:05:58.407Z,17.98
2019-06-07T19:08:38.646Z,17.96
2019-06-07T19:11:15.698Z,17.93
2019-06-07T19:13:46.515Z,17.87
2019-06-07T19:16:17.577Z,17.81
2019-06-07T19:18:49.465Z,17.79
2019-06-07T19:21:20.413Z,17.91
2019-06-07T19:23:51.766Z,17.92
2019-06-07T19:29:13.698Z,18.05
2019-06-07T19:31:44.836Z,17.98
2019-06-07T19:34:20.719Z,17.94
2019-06-07T19:36:51.536Z,17.96
2019-06-07T19:39:22.214Z,17.93
2019-06-07T19:41:53.920Z,17.90
2019-06-07T19:44:24.667Z,17.85
2019-06-07T19:47:00.498Z,17.79
2019-06-07T19:49:33.946Z,17.77
2019-06-07T19:52:04.667Z,17.78
2019-06-07T19:54:35.298Z,17.82
2019-06-07T19:57:07.179Z,17.85
2019-06-07T19:59:37.794Z,17.87
2019-06-07T20:02:08.619Z,17.87
2019-06-07T20:04:39.306Z,17.87
2019-06-07T20:07:10.063Z,17.88
2019-06-07T20:09:40.893Z,17.88
2019-06-07T20:12:11.644Z,17.87
2019-06-07T20:14:42.316Z,17.84
2019-06-07T20:17:12.969Z,17.76
2019-06-07T20:19:43.863Z,17.65
2019-06-07T20:22:14.570Z,17.56
2019-06-07T20:24:45.214Z,17.48
2019-06-07T20:27:20.285Z,17.40
2019-06-07T20:29:56.755Z,17.32
2019-06-07T20:32:27.902Z,17.25
2019-06-07T20:34:59.658Z,17.18
2019-06-07T20:37:30.265Z,17.12
2019-06-07T20:40:12.959Z,17.04
2019-06-07T20:42:33.462Z,17.00
2019-06-07T20:45:04.232Z,16.95
2019-06-07T20:47:34.702Z,16.88
2019-06-07T20:50:06.353Z,16.85
2019-06-07T20:52:36.920Z,16.98
2019-06-07T20:55:09.093Z,16.90
2019-06-07T20:57:40.025Z,16.82
2019-06-07T21:00:20.739Z,16.78
2019-06-07T21:02:44.448Z,16.77
2019-06-07T21:05:15.404Z,16.77
2019-06-07T21:07:46.282Z,16.75
2019-06-07T21:10:17.390Z,16.76
2019-06-07T21:12:48.116Z,16.74
2019-06-07T21:15:20.730Z,16.72
2019-06-07T21:17:51.527Z,16.70
2019-06-07T21:23:00.677Z,16.83
2019-06-07T21:25:31.115Z,16.73
2019-06-07T21:28:03.081Z,16.69
2019-06-07T21:30:33.678Z,16.67
2019-06-07T21:33:05.454Z,16.63
2019-06-07T21:35:35.974Z,16.61
2019-06-07T21:38:07.835Z,16.58
2019-06-07T21:40:38.277Z,16.56
2019-06-07T21:43:08.835Z,16.53
2019-06-07T21:45:39.198Z,16.51
2019-06-07T21:48:09.539Z,16.50
2019-06-07T21:50:39.970Z,16.50
2019-06-07T21:53:10.716Z,16.45
2019-06-07T21:55:51.692Z,16.42
2019-06-07T21:58:22.404Z,16.37
2019-06-07T22:01:23.091Z,16.32
2019-06-07T22:03:53.530Z,16.27
2019-06-07T22:06:23.861Z,16.22
2019-06-07T22:08:54.269Z,16.18
2019-06-07T22:11:24.670Z,16.11
2019-06-07T22:13:55.064Z,16.07
2019-06-07T22:16:29.301Z,16.01
2019-06-07T22:18:57.535Z,15.96
2019-06-07T22:21:28.062Z,15.91
2019-06-07T22:23:58.518Z,15.92
2019-06-07T22:26:28.953Z,15.93
2019-06-07T22:28:59.320Z,15.94
2019-06-07T22:31:31.127Z,15.91
2019-06-07T22:34:01.700Z,15.87
2019-06-07T22:36:32.144Z,15.79
2019-06-07T22:39:02.608Z,15.70
2019-06-07T22:41:32.939Z,15.62
2019-06-07T22:44:03.373Z,15.55
2019-06-07T22:46:37.620Z,15.47
2019-06-07T22:49:07.212Z,15.43
2019-06-07T22:51:37.662Z,15.38
2019-06-07T22:54:08.087Z,15.25
2019-06-07T22:57:00.648Z,15.28
2019-06-07T22:59:31.128Z,15.23
2019-06-07T23:02:01.737Z,15.17
2019-06-07T23:04:32.387Z,15.14
2019-06-07T23:07:03.135Z,15.11
2019-06-07T23:09:33.735Z,15.08
2019-06-07T23:12:04.485Z,15.07
2019-06-07T23:14:35.133Z,15.04
2019-06-07T23:17:05.666Z,15.01
2019-06-07T23:19:36.446Z,14.97
2019-06-07T23:22:07.210Z,14.94
2019-06-07T23:24:37.768Z,14.92
2019-06-07T23:27:08.437Z,14.89
2019-06-07T23:29:39.121Z,14.87
2019-06-07T23:32:10.529Z,14.84
2019-06-07T23:34:41.125Z,14.81
2019-06-07T23:37:12.994Z,14.90
2019-06-07T23:39:43.695Z,14.88
2019-06-07T23:42:15.447Z,14.84
2019-06-07T23:44:46.068Z,14.79
2019-06-07T23:47:17.720Z,14.74
2019-06-07T23:49:48.916Z,14.73
2019-06-07T23:52:19.762Z,14.72
2019-06-07T23:54:50.320Z,14.70
2019-06-07T23:57:22.546Z,14.68
2019-06-07T23:59:53.092Z,14.67
